createdAt,value
2022-07-30T00:01:57.959Z,36.43
2022-07-30T00:04:25.266Z,36.47
2022-07-30T00:06:52.682Z,36.26
2022-07-30T00:09:19.975Z,36.70
2022-07-30T00:11:47.517Z,37.34
2022-07-30T00:14:14.735Z,37.69
2022-07-30T00:16:42.180Z,37.51
2022-07-30T00:19:09.999Z,37.75
2022-07-30T00:21:39.010Z,37.82
2022-07-30T00:24:08.667Z,37.80
2022-07-30T00:26:36.137Z,37.60
2022-07-30T00:29:04.091Z,37.92
2022-07-30T00:31:31.805Z,37.81
2022-07-30T00:33:59.117Z,38.09
2022-07-30T00:36:26.593Z,37.57
2022-07-30T00:38:53.958Z,37.60
2022-07-30T00:41:22.131Z,37.59
2022-07-30T00:43:49.428Z,37.52
2022-07-30T00:46:16.806Z,38.13
2022-07-30T00:48:44.227Z,38.54
2022-07-30T00:51:11.848Z,38.67
2022-07-30T00:53:39.295Z,38.51
2022-07-30T00:56:06.974Z,38.38
2022-07-30T00:58:35.331Z,38.30
2022-07-30T01:01:02.999Z,38.51
2022-07-30T01:03:30.283Z,38.41
2022-07-30T01:05:57.749Z,38.65
2022-07-30T01:08:25.149Z,38.70
2022-07-30T01:10:52.635Z,39.15
2022-07-30T01:13:19.954Z,39.67
2022-07-30T01:15:47.968Z,40.13
2022-07-30T01:18:16.339Z,41.11
2022-07-30T01:20:50.436Z,41.09
2022-07-30T01:23:28.111Z,41.11
2022-07-30T01:26:08.078Z,41.43
2022-07-30T01:29:01.724Z,42.07
2022-07-30T01:31:30.688Z,42.24
2022-07-30T01:33:59.192Z,42.01
2022-07-30T01:36:27.897Z,41.99
2022-07-30T01:38:55.690Z,42.28
2022-07-30T01:41:24.117Z,42.70
2022-07-30T01:43:52.655Z,42.79
2022-07-30T01:46:20.134Z,42.99
2022-07-30T01:48:49.668Z,42.74
2022-07-30T01:51:17.733Z,42.70
2022-07-30T01:53:50.080Z,43.33
2022-07-30T01:56:20.165Z,43.70
2022-07-30T01:58:53.983Z,43.61
2022-07-30T02:01:24.774Z,43.43
2022-07-30T02:03:59.476Z,43.50
2022-07-30T02:06:40.890Z,44.18
2022-07-30T02:09:11.625Z,43.91
2022-07-30T02:12:01.919Z,43.38
2022-07-30T02:14:47.278Z,43.65
2022-07-30T02:17:19.384Z,44.14
2022-07-30T02:19:50.076Z,45.14
2022-07-30T02:22:18.941Z,44.98
2022-07-30T02:24:48.345Z,44.56
2022-07-30T02:27:23.169Z,44.54
2022-07-30T02:29:52.561Z,43.98
2022-07-30T02:32:22.384Z,44.17
2022-07-30T02:34:52.274Z,44.08
2022-07-30T02:37:43.014Z,44.36
2022-07-30T02:40:12.811Z,44.10
2022-07-30T02:42:41.437Z,44.24
2022-07-30T02:45:09.410Z,44.47
2022-07-30T02:47:37.245Z,44.58
2022-07-30T02:50:06.616Z,44.82
2022-07-30T02:52:35.212Z,44.34
2022-07-30T02:55:03.132Z,44.55
2022-07-30T02:57:31.813Z,44.55
2022-07-30T03:00:00.193Z,44.38
2022-07-30T03:02:29.383Z,44.93
2022-07-30T03:04:58.042Z,44.95
2022-07-30T03:07:25.635Z,45.19
2022-07-30T03:09:53.676Z,44.88
2022-07-30T03:12:21.941Z,44.67
2022-07-30T03:14:49.322Z,44.95
2022-07-30T03:17:18.509Z,45.24
2022-07-30T03:19:47.000Z,45.60
2022-07-30T03:22:15.201Z,46.36
2022-07-30T03:24:43.888Z,46.39
2022-07-30T03:27:11.361Z,46.21
2022-07-30T03:29:39.661Z,46.39
2022-07-30T03:32:07.315Z,46.70
2022-07-30T03:34:35.575Z,46.38
2022-07-30T03:37:06.535Z,46.03
2022-07-30T03:39:36.012Z,45.95
2022-07-30T03:42:04.697Z,45.86
2022-07-30T03:44:33.532Z,46.35
2022-07-30T03:47:03.631Z,47.03
2022-07-30T03:49:34.520Z,47.09
2022-07-30T03:52:03.001Z,47.25
2022-07-30T03:54:34.472Z,47.20
2022-07-30T03:57:25.862Z,48.45
2022-07-30T03:59:53.843Z,48.09
2022-07-30T04:02:22.524Z,47.73
2022-07-30T04:05:13.916Z,47.17
2022-07-30T04:07:45.293Z,46.65
2022-07-30T04:10:15.719Z,47.21
2022-07-30T04:13:12.291Z,47.07
2022-07-30T04:16:38.795Z,46.35
2022-07-30T04:18:44.325Z,46.82
2022-07-30T04:21:17.251Z,46.70
2022-07-30T04:24:03.040Z,46.50
2022-07-30T04:26:37.886Z,46.46
2022-07-30T04:29:08.698Z,46.60
2022-07-30T04:31:40.032Z,47.00
2022-07-30T04:34:51.785Z,47.07
2022-07-30T04:37:32.982Z,46.94
2022-07-30T04:40:00.320Z,47.00
2022-07-30T04:42:28.480Z,47.45
2022-07-30T04:45:06.249Z,47.38
2022-07-30T04:47:45.320Z,47.30
2022-07-30T04:50:34.090Z,48.29
2022-07-30T04:53:02.003Z,48.30
2022-07-30T04:55:34.118Z,48.16
2022-07-30T04:58:02.194Z,47.44
2022-07-30T05:00:37.724Z,47.56
2022-07-30T05:03:12.584Z,47.86
2022-07-30T05:05:42.538Z,47.52
2022-07-30T05:08:12.811Z,47.78
2022-07-30T05:10:40.673Z,48.07
2022-07-30T05:13:14.315Z,48.68
2022-07-30T05:15:44.703Z,48.01
2022-07-30T05:18:13.299Z,48.51
2022-07-30T05:20:43.520Z,49.12
2022-07-30T05:23:16.333Z,49.41
2022-07-30T05:25:50.450Z,49.03
2022-07-30T05:28:28.598Z,49.84
2022-07-30T05:30:59.186Z,49.94
2022-07-30T05:33:41.221Z,50.85
2022-07-30T05:36:12.985Z,50.85
2022-07-30T05:38:40.979Z,50.64
2022-07-30T05:41:43.483Z,50.78
2022-07-30T05:44:24.016Z,51.65
2022-07-30T05:46:52.311Z,51.06
2022-07-30T05:49:19.775Z,49.36
2022-07-30T05:51:47.336Z,49.48
2022-07-30T05:57:02.897Z,49.57
2022-07-30T05:59:36.114Z,50.23
2022-07-30T06:02:07.151Z,49.76
2022-07-30T06:04:56.338Z,49.58
2022-07-30T06:07:24.453Z,49.25
2022-07-30T06:09:54.248Z,49.94
2022-07-30T06:12:21.671Z,49.33
2022-07-30T06:14:49.422Z,49.05
2022-07-30T06:17:23.839Z,49.42
2022-07-30T06:20:07.525Z,48.87
2022-07-30T06:22:47.559Z,49.62
2022-07-30T06:25:22.859Z,49.54
2022-07-30T06:27:50.939Z,48.98
2022-07-30T06:30:18.329Z,48.59
2022-07-30T06:32:48.801Z,48.92
2022-07-30T06:38:05.711Z,48.89
2022-07-30T06:40:33.670Z,48.13
2022-07-30T06:43:05.983Z,46.79
2022-07-30T06:45:47.751Z,46.60
2022-07-30T06:48:22.624Z,47.48
2022-07-30T06:50:50.245Z,47.21
2022-07-30T06:53:17.962Z,47.38
2022-07-30T06:56:08.240Z,47.61
2022-07-30T06:58:44.513Z,47.17
2022-07-30T07:01:50.632Z,47.27
2022-07-30T07:04:18.417Z,47.45
2022-07-30T07:06:45.711Z,46.96
2022-07-30T07:09:17.393Z,46.72
2022-07-30T07:12:00.533Z,45.61
2022-07-30T07:14:28.025Z,44.88
2022-07-30T07:16:55.404Z,44.51
2022-07-30T07:20:01.704Z,44.30
2022-07-30T07:22:33.776Z,44.87
2022-07-30T07:25:01.032Z,44.88
2022-07-30T07:27:31.559Z,44.45
2022-07-30T07:30:05.326Z,44.06
2022-07-30T07:32:36.565Z,43.92
2022-07-30T07:35:05.717Z,42.57
2022-07-30T07:37:35.276Z,42.78
2022-07-30T07:40:04.373Z,43.53
2022-07-30T07:42:36.167Z,44.14
2022-07-30T07:45:03.727Z,44.43
2022-07-30T07:47:56.063Z,43.44
2022-07-30T07:50:43.609Z,42.79
2022-07-30T07:53:18.371Z,42.30
2022-07-30T07:55:45.860Z,44.31
2022-07-30T07:58:18.160Z,44.15
2022-07-30T08:00:54.187Z,42.87
2022-07-30T08:03:24.872Z,42.21
2022-07-30T08:06:00.991Z,42.69
2022-07-30T08:08:50.801Z,41.93
2022-07-30T08:11:40.930Z,42.28
2022-07-30T08:14:26.576Z,41.37
2022-07-30T08:17:16.671Z,40.25
2022-07-30T08:20:08.361Z,40.84
2022-07-30T08:22:36.031Z,41.41
2022-07-30T08:25:04.699Z,40.58
2022-07-30T08:27:32.206Z,40.97
2022-07-30T08:30:05.575Z,41.10
2022-07-30T08:32:33.020Z,40.81
2022-07-30T08:35:01.010Z,40.75
2022-07-30T08:37:28.969Z,40.87
2022-07-30T08:39:56.264Z,41.31
2022-07-30T08:42:24.162Z,41.47
2022-07-30T08:44:53.416Z,40.80
2022-07-30T08:47:25.441Z,39.93
2022-07-30T08:50:11.733Z,39.33
2022-07-30T08:53:11.129Z,38.55
2022-07-30T08:55:38.578Z,39.27
2022-07-30T08:58:29.957Z,39.28
2022-07-30T09:00:58.020Z,38.98
2022-07-30T09:03:26.047Z,37.83
2022-07-30T09:05:53.363Z,38.08
2022-07-30T09:08:20.668Z,36.71
2022-07-30T09:10:50.646Z,37.04
2022-07-30T09:13:32.441Z,37.14
2022-07-30T09:16:01.712Z,36.49
2022-07-30T09:18:30.555Z,35.69
2022-07-30T09:21:02.828Z,35.13
2022-07-30T09:23:30.258Z,34.26
2022-07-30T09:26:17.563Z,34.79
2022-07-30T09:29:19.475Z,34.79
2022-07-30T09:32:07.421Z,33.58
2022-07-30T09:34:53.539Z,34.24
2022-07-30T09:37:47.803Z,34.16
2022-07-30T09:40:50.595Z,33.26
2022-07-30T09:43:57.169Z,32.70
2022-07-30T09:46:51.560Z,33.64
2022-07-30T09:49:28.798Z,34.48
2022-07-30T09:51:57.680Z,34.25
2022-07-30T09:54:51.432Z,34.50
2022-07-30T10:00:23.988Z,34.15
2022-07-30T10:03:34.111Z,34.52
2022-07-30T10:06:38.261Z,34.23
2022-07-30T10:09:27.193Z,34.42
2022-07-30T10:11:56.691Z,33.98
2022-07-30T10:14:30.774Z,33.72
2022-07-30T10:17:00.901Z,33.83
2022-07-30T10:19:39.570Z,32.94
2022-07-30T10:22:28.013Z,34.09
2022-07-30T10:25:16.052Z,33.26
2022-07-30T10:28:03.279Z,33.45
2022-07-30T10:30:33.534Z,32.70
2022-07-30T10:33:01.509Z,33.08
2022-07-30T10:35:31.233Z,32.70
2022-07-30T10:38:08.350Z,33.36
2022-07-30T10:40:46.377Z,34.04
2022-07-30T10:43:20.682Z,32.73
2022-07-30T10:46:00.473Z,32.42
2022-07-30T10:48:35.563Z,32.73
2022-07-30T10:51:11.157Z,33.00
2022-07-30T10:53:52.618Z,32.96
2022-07-30T10:56:22.377Z,32.76
2022-07-30T10:58:59.704Z,33.05
2022-07-30T11:01:53.199Z,32.48
2022-07-30T11:04:26.940Z,34.04
2022-07-30T11:07:22.260Z,34.02
2022-07-30T11:10:05.575Z,34.28
2022-07-30T11:12:44.143Z,34.15
2022-07-30T11:15:18.594Z,34.05
2022-07-30T11:18:02.353Z,33.59
2022-07-30T11:20:31.086Z,34.34
2022-07-30T11:23:37.693Z,33.58
2022-07-30T11:26:07.445Z,33.80
2022-07-30T11:28:36.755Z,33.46
2022-07-30T11:31:37.090Z,33.46
2022-07-30T11:34:32.770Z,33.66
2022-07-30T11:37:22.468Z,33.64
2022-07-30T11:39:59.818Z,33.19
2022-07-30T11:42:30.923Z,33.61
2022-07-30T11:45:16.592Z,33.47
2022-07-30T11:47:48.568Z,34.00
2022-07-30T11:50:19.616Z,33.38
2022-07-30T11:52:54.610Z,33.14
2022-07-30T11:55:25.733Z,32.91
2022-07-30T11:57:54.416Z,32.26
2022-07-30T12:00:22.346Z,31.99
2022-07-30T12:05:27.185Z,31.54
2022-07-30T12:07:58.547Z,31.75
2022-07-30T12:10:26.973Z,32.35
2022-07-30T12:13:16.376Z,31.67
2022-07-30T12:15:46.928Z,32.27
2022-07-30T12:18:26.444Z,32.17
2022-07-30T12:21:00.217Z,31.85
2022-07-30T12:23:28.981Z,31.42
2022-07-30T12:25:56.896Z,31.11
2022-07-30T12:28:30.896Z,31.27
2022-07-30T12:30:59.293Z,32.25
2022-07-30T12:33:26.902Z,32.08
2022-07-30T12:36:00.952Z,32.21
2022-07-30T12:38:29.005Z,32.07
2022-07-30T12:41:03.405Z,31.67
2022-07-30T12:43:52.973Z,31.81
2022-07-30T12:46:23.951Z,31.54
2022-07-30T12:49:21.411Z,31.86
2022-07-30T12:51:52.612Z,31.21
2022-07-30T12:54:27.490Z,31.21
2022-07-30T12:57:00.668Z,30.96
2022-07-30T12:59:28.978Z,31.17
2022-07-30T13:02:03.491Z,31.16
2022-07-30T13:04:32.063Z,31.50
2022-07-30T13:07:18.220Z,30.75
2022-07-30T13:09:45.564Z,30.98
2022-07-30T13:12:15.151Z,30.45
2022-07-30T13:14:42.457Z,29.98
2022-07-30T13:17:10.745Z,29.73
2022-07-30T13:19:38.119Z,29.00
2022-07-30T13:22:05.535Z,29.64
2022-07-30T13:24:34.117Z,29.92
2022-07-30T13:27:01.608Z,30.21
2022-07-30T13:29:29.079Z,30.72
2022-07-30T13:31:56.483Z,30.68
2022-07-30T13:34:23.785Z,31.22
2022-07-30T13:36:52.850Z,31.64
2022-07-30T13:39:20.325Z,30.63
2022-07-30T13:41:47.589Z,30.70
2022-07-30T13:44:14.879Z,31.24
2022-07-30T13:46:42.144Z,30.74
2022-07-30T13:49:10.849Z,30.87
2022-07-30T13:51:38.393Z,30.31
2022-07-30T13:54:07.376Z,30.26
2022-07-30T13:56:35.027Z,29.56
2022-07-30T13:59:08.829Z,29.51
2022-07-30T14:01:36.159Z,30.23
2022-07-30T14:04:03.849Z,30.57
2022-07-30T14:06:31.206Z,30.50
2022-07-30T14:08:58.594Z,30.85
2022-07-30T14:11:25.938Z,30.58
2022-07-30T14:13:53.213Z,30.94
2022-07-30T14:16:43.525Z,30.60
2022-07-30T14:19:08.153Z,30.51
2022-07-30T14:21:50.603Z,30.59
2022-07-30T14:24:17.905Z,30.87
2022-07-30T14:26:45.151Z,30.66
2022-07-30T14:29:12.473Z,30.02
2022-07-30T14:31:40.685Z,30.57
2022-07-30T14:34:10.125Z,30.06
2022-07-30T14:36:37.641Z,29.63
2022-07-30T14:39:05.084Z,29.48
2022-07-30T14:41:32.995Z,29.43
2022-07-30T14:44:00.428Z,29.19
2022-07-30T14:46:27.804Z,29.75
2022-07-30T14:48:55.208Z,30.77
2022-07-30T14:51:26.381Z,31.02
2022-07-30T14:53:55.557Z,31.19
2022-07-30T14:56:25.194Z,30.84
2022-07-30T14:58:54.679Z,30.84
2022-07-30T15:01:21.977Z,30.74
2022-07-30T15:03:49.296Z,30.06
2022-07-30T15:06:17.338Z,30.68
2022-07-30T15:08:46.141Z,30.96
2022-07-30T15:11:13.434Z,30.18
2022-07-30T15:13:49.686Z,30.12
2022-07-30T15:16:19.022Z,29.39
2022-07-30T15:18:46.425Z,28.90
2022-07-30T15:21:14.057Z,29.22
2022-07-30T15:23:41.454Z,28.88
2022-07-30T15:26:08.835Z,29.17
2022-07-30T15:28:36.418Z,28.52
2022-07-30T15:31:04.403Z,28.35
2022-07-30T15:33:36.117Z,29.29
2022-07-30T15:36:04.821Z,29.44
2022-07-30T15:38:32.435Z,28.98
2022-07-30T15:40:59.987Z,28.78
2022-07-30T15:43:27.548Z,29.04
2022-07-30T15:45:55.897Z,28.62
2022-07-30T15:48:26.815Z,29.39
2022-07-30T15:51:04.630Z,28.73
2022-07-30T15:53:32.754Z,28.89
2022-07-30T15:56:00.685Z,29.55
2022-07-30T15:58:28.119Z,29.29
2022-07-30T16:00:55.500Z,29.96
2022-07-30T16:03:22.911Z,30.10
2022-07-30T16:05:52.492Z,30.02
2022-07-30T16:08:21.405Z,30.07
2022-07-30T16:10:49.525Z,29.93
2022-07-30T16:13:16.833Z,30.45
2022-07-30T16:15:44.697Z,29.88
2022-07-30T16:18:12.260Z,30.45
2022-07-30T16:20:39.542Z,30.46
2022-07-30T16:23:12.159Z,29.85
2022-07-30T16:25:40.549Z,30.55
2022-07-30T16:28:07.880Z,30.68
2022-07-30T16:30:35.363Z,30.90
2022-07-30T16:33:16.592Z,31.39
2022-07-30T16:35:49.417Z,31.08
2022-07-30T16:38:19.826Z,31.19
2022-07-30T16:40:47.600Z,31.34
2022-07-30T16:43:16.257Z,31.27
2022-07-30T16:45:43.829Z,31.57
2022-07-30T16:48:11.941Z,31.71
2022-07-30T16:50:40.763Z,31.33
2022-07-30T16:53:13.341Z,31.10
2022-07-30T16:55:42.961Z,30.85
2022-07-30T16:58:10.834Z,30.83
2022-07-30T17:00:38.536Z,31.00
2022-07-30T17:03:05.944Z,31.13
2022-07-30T17:05:33.243Z,30.42
2022-07-30T17:08:00.648Z,30.49
2022-07-30T17:10:28.090Z,29.88
2022-07-30T17:12:56.866Z,29.67
2022-07-30T17:15:32.906Z,30.06
2022-07-30T17:18:03.655Z,29.69
2022-07-30T17:20:31.746Z,30.43
2022-07-30T17:22:59.070Z,30.43
2022-07-30T17:25:29.838Z,30.97
2022-07-30T17:27:58.689Z,31.20
2022-07-30T17:30:27.081Z,31.39
2022-07-30T17:32:54.423Z,31.61
2022-07-30T17:35:22.028Z,31.30
2022-07-30T17:37:49.399Z,31.10
2022-07-30T17:40:28.543Z,31.30
2022-07-30T17:43:03.522Z,30.74
2022-07-30T17:45:35.429Z,31.14
2022-07-30T17:48:06.321Z,31.24
2022-07-30T17:50:34.596Z,30.63
2022-07-30T17:53:03.513Z,30.21
2022-07-30T17:55:34.801Z,30.72
2022-07-30T17:58:05.753Z,30.51
2022-07-30T18:00:34.872Z,30.05
2022-07-30T18:03:03.632Z,30.00
2022-07-30T18:05:31.178Z,30.95
2022-07-30T18:07:58.637Z,31.63
2022-07-30T18:10:25.918Z,32.01
2022-07-30T18:12:53.734Z,32.86
2022-07-30T18:15:21.008Z,33.44
2022-07-30T18:17:48.364Z,33.66
2022-07-30T18:20:16.132Z,33.27
2022-07-30T18:22:43.671Z,32.92
2022-07-30T18:25:16.551Z,32.93
2022-07-30T18:27:47.527Z,33.26
2022-07-30T18:30:15.484Z,33.66
2022-07-30T18:32:45.342Z,33.65
2022-07-30T18:35:14.720Z,33.60
2022-07-30T18:37:43.782Z,33.63
2022-07-30T18:40:17.705Z,33.73
2022-07-30T18:42:48.187Z,33.55
2022-07-30T18:45:15.566Z,33.83
2022-07-30T18:47:44.284Z,34.54
2022-07-30T18:50:13.333Z,34.31
2022-07-30T18:52:41.064Z,34.75
2022-07-30T18:55:11.172Z,34.94
2022-07-30T18:57:39.395Z,35.22
2022-07-30T19:00:08.801Z,35.82
2022-07-30T19:02:37.316Z,35.61
2022-07-30T19:05:05.741Z,35.63
2022-07-30T19:07:55.409Z,35.53
2022-07-30T19:10:20.669Z,35.71
2022-07-30T19:12:54.949Z,36.10
2022-07-30T19:15:23.799Z,36.22
2022-07-30T19:17:51.809Z,36.35
2022-07-30T19:20:20.100Z,37.30
2022-07-30T19:22:47.890Z,37.31
2022-07-30T19:25:18.043Z,37.49
2022-07-30T19:27:45.850Z,37.40
2022-07-30T19:30:13.575Z,37.55
2022-07-30T19:32:41.197Z,38.04
2022-07-30T19:35:13.592Z,37.99
2022-07-30T19:37:43.385Z,38.02
2022-07-30T19:40:12.802Z,37.51
2022-07-30T19:42:41.529Z,38.09
2022-07-30T19:45:11.473Z,39.05
2022-07-30T19:47:39.754Z,39.07
2022-07-30T19:50:10.506Z,39.50
2022-07-30T19:52:39.889Z,39.89
2022-07-30T19:55:17.323Z,39.73
2022-07-30T19:57:55.989Z,40.62
2022-07-30T20:00:24.912Z,41.22
2022-07-30T20:02:53.774Z,41.69
2022-07-30T20:05:21.076Z,42.28
2022-07-30T20:07:52.716Z,42.91
2022-07-30T20:10:19.955Z,42.55
2022-07-30T20:12:50.196Z,42.67
2022-07-30T20:15:17.803Z,43.34
2022-07-30T20:17:46.356Z,43.71
2022-07-30T20:20:14.450Z,44.51
2022-07-30T20:22:41.710Z,44.53
2022-07-30T20:25:10.702Z,44.26
2022-07-30T20:27:40.313Z,43.13
2022-07-30T20:30:09.455Z,43.24
2022-07-30T20:32:38.325Z,43.30
2022-07-30T20:35:07.413Z,45.37
2022-07-30T20:37:40.326Z,45.19
2022-07-30T20:40:24.142Z,45.11
2022-07-30T20:42:54.393Z,45.67
2022-07-30T20:45:24.718Z,45.41
2022-07-30T20:47:56.602Z,45.82
2022-07-30T20:50:30.745Z,45.68
2022-07-30T20:52:59.553Z,46.37
2022-07-30T20:55:27.316Z,46.21
2022-07-30T20:58:01.357Z,46.89
2022-07-30T21:00:36.698Z,46.72
2022-07-30T21:03:05.461Z,47.11
2022-07-30T21:05:35.445Z,47.26
2022-07-30T21:08:03.096Z,46.69
2022-07-30T21:10:30.466Z,46.71
2022-07-30T21:13:02.941Z,47.19
2022-07-30T21:15:32.923Z,47.26
2022-07-30T21:18:01.766Z,46.61
2022-07-30T21:20:30.815Z,47.77
2022-07-30T21:23:11.354Z,48.63
2022-07-30T21:26:00.834Z,48.96
2022-07-30T21:28:29.605Z,49.08
2022-07-30T21:30:57.098Z,48.67
2022-07-30T21:33:44.271Z,48.84
2022-07-30T21:36:13.087Z,49.00
2022-07-30T21:38:42.649Z,49.47
2022-07-30T21:41:14.353Z,49.63
2022-07-30T21:43:46.489Z,50.44
2022-07-30T21:46:24.800Z,51.03
2022-07-30T21:48:58.301Z,50.74
2022-07-30T21:51:26.690Z,50.17
2022-07-30T21:53:54.017Z,51.30
2022-07-30T21:56:21.363Z,51.41
2022-07-30T21:58:49.096Z,51.52
2022-07-30T22:01:21.734Z,50.94
2022-07-30T22:04:03.379Z,50.72
2022-07-30T22:06:41.791Z,51.64
2022-07-30T22:09:19.401Z,52.24
2022-07-30T22:12:09.122Z,52.09
2022-07-30T22:14:39.230Z,51.27
2022-07-30T22:17:14.891Z,50.81
2022-07-30T22:19:51.907Z,52.26
2022-07-30T22:22:26.036Z,52.88
2022-07-30T22:24:58.129Z,53.08
2022-07-30T22:27:25.707Z,53.29
2022-07-30T22:29:55.759Z,52.99
2022-07-30T22:32:24.210Z,53.56
2022-07-30T22:34:52.933Z,54.27
2022-07-30T22:37:21.717Z,54.86
2022-07-30T22:39:50.637Z,55.07
2022-07-30T22:42:24.510Z,55.65
2022-07-30T22:44:52.915Z,55.63
2022-07-30T22:47:50.294Z,55.23
2022-07-30T22:50:08.104Z,56.58
2022-07-30T22:52:44.182Z,57.81
2022-07-30T22:55:24.721Z,57.23
2022-07-30T22:57:52.320Z,57.42
2022-07-30T23:00:27.447Z,56.99
2022-07-30T23:02:57.241Z,57.43
2022-07-30T23:05:25.135Z,57.87
2022-07-30T23:07:52.486Z,58.02
2022-07-30T23:10:20.457Z,57.73
2022-07-30T23:12:53.036Z,58.55
2022-07-30T23:15:21.059Z,59.28
2022-07-30T23:17:48.683Z,59.68
2022-07-30T23:20:17.940Z,60.05
2022-07-30T23:22:45.211Z,60.02
2022-07-30T23:25:12.955Z,58.99
2022-07-30T23:27:41.213Z,58.44
2022-07-30T23:30:10.227Z,58.52
2022-07-30T23:32:38.154Z,59.36
2022-07-30T23:35:07.272Z,59.37
2022-07-30T23:37:37.965Z,59.15
2022-07-30T23:40:17.787Z,58.14
2022-07-30T23:42:45.135Z,59.01
2022-07-30T23:45:12.413Z,60.66
2022-07-30T23:48:00.617Z,60.92
2022-07-30T23:50:27.228Z,60.55
2022-07-30T23:52:54.622Z,61.72
2022-07-30T23:55:21.978Z,61.71
2022-07-30T23:57:49.259Z,61.49
